Terminal Aerodrome Forecast
Issued by NWS

Home | Current Version | Previous Version | Text Only | Print | Product List | Glossary On
Versions: 1 2 3 4 5 6 7 8 9 10 11 12 13
000
FTUS45 KSLC 270612 AAA
TAFENV
TAF AMD
KENV 270612Z 2706/2806 32020G32KT P6SM SCT070 BKN120
     FM271000 32015G22KT P6SM SCT070 SCT120
     FM271900 28011G16KT P6SM FEW070
     FM280300 35007KT P6SM FEW070=

USA.gov is the U.S. government's official web portal to all federal, state and local government web resources and services.